createdAt,value
2019-05-05T11:14:48.950Z,3.23
2019-05-05T11:24:59.948Z,7.97
2019-05-05T11:34:53.549Z,3.73
2019-05-05T11:44:54.414Z,3.20
2019-05-05T11:55:08.627Z,3.27
2019-05-05T12:04:58.350Z,4.97
2019-05-05T12:14:58.999Z,4.30
2019-05-05T12:24:59.702Z,3.87
2019-05-05T12:35:00.390Z,3.70
2019-05-05T12:45:01.014Z,3.20
2019-05-05T12:55:05.124Z,1.97
2019-05-05T13:05:06.064Z,2.20
2019-05-05T13:15:08.456Z,2.27
2019-05-05T13:25:09.168Z,2.93
2019-05-05T13:35:09.925Z,1.80
2019-05-05T13:45:10.975Z,3.27
2019-05-05T13:55:13.843Z,2.13
2019-05-05T14:05:14.828Z,3.93
2019-05-05T14:15:18.044Z,1.80
2019-05-05T14:25:24.220Z,2.07
2019-05-05T14:35:25.403Z,2.17
2019-05-05T14:45:26.149Z,1.40
2019-05-05T14:55:26.865Z,1.07
2019-05-05T15:05:27.757Z,1.00
2019-05-05T15:15:28.615Z,1.40
2019-05-05T15:25:30.262Z,1.27
2019-05-05T15:35:30.931Z,2.83
2019-05-05T15:45:31.610Z,2.87
2019-05-05T15:55:33.984Z,3.20
2019-05-05T16:05:34.695Z,1.80
2019-05-05T16:15:35.398Z,1.53
2019-05-05T16:25:36.446Z,1.50
2019-05-05T16:35:37.421Z,3.20
2019-05-05T16:45:38.468Z,3.07
2019-05-05T16:55:39.161Z,2.90
2019-05-05T17:05:40.061Z,2.50
2019-05-05T17:15:40.773Z,2.60
2019-05-05T17:25:43.810Z,1.63
2019-05-05T17:35:44.347Z,2.03
2019-05-05T17:45:45.031Z,2.20
2019-05-05T17:55:45.922Z,3.53
2019-05-05T18:05:46.603Z,3.83
2019-05-05T18:15:48.362Z,3.93
2019-05-05T18:25:49.317Z,2.33
2019-05-05T18:35:50.233Z,2.97
2019-05-05T18:45:51.204Z,2.90
2019-05-05T18:55:53.887Z,3.40
2019-05-05T19:05:54.746Z,3.50
2019-05-05T19:15:55.623Z,4.00
2019-05-05T19:25:58.504Z,3.97
2019-05-05T19:35:59.226Z,4.63
2019-05-05T19:46:00.155Z,4.97
2019-05-05T19:56:01.042Z,6.17
2019-05-05T20:06:02.018Z,4.20
2019-05-05T20:16:04.488Z,4.00
2019-05-05T20:26:05.559Z,3.90
2019-05-05T20:36:06.517Z,5.33
2019-05-05T20:46:08.321Z,4.80
2019-05-05T20:56:09.007Z,3.97
2019-05-05T21:06:09.763Z,5.70
2019-05-05T21:16:10.694Z,5.00
2019-05-05T21:26:11.384Z,5.40
2019-05-05T21:36:14.568Z,5.43
2019-05-05T21:46:15.397Z,4.13
2019-05-05T21:56:16.295Z,4.20
2019-05-05T22:06:16.937Z,4.50
2019-05-05T22:16:17.637Z,5.13
2019-05-05T22:26:18.559Z,4.63
2019-05-05T22:36:19.210Z,5.33
2019-05-05T22:46:19.897Z,4.63
2019-05-05T22:56:20.814Z,5.70
2019-05-05T23:06:21.592Z,5.17
2019-05-05T23:16:23.757Z,5.83
2019-05-05T23:26:25.412Z,6.77
2019-05-05T23:36:26.101Z,6.13
2019-05-05T23:46:26.989Z,5.73
2019-05-05T23:56:27.891Z,6.40
